• Join FlightAware (Why Join?)
  • Login
  • US Flag 
06:26PM EST


 

Airport Tracker/Info


-or-


 

Live Flight TrackerFlight Track Log ✈ AIP5037 ✈ 06-Jun-2014 ✈ KBIL - KMSO

Flight Track Log - Related Links

Times and Time Zones

All times are in EDT time to prevent confusion due to time zone crossing. See the AIP5037 flight status page for this flight to view local times or setup timezone preferences in your user account.

Time Position Orientation Groundspeed Altitude Reporting Facility
EDT Latitude Longitude Course Direction KTS MPH feet Rate Location/Type
01:11AM 45.8261 -108.6108 287° West 157 181 5,800  Level Salt Lake Center
01:12AM 45.8403 -108.6736 288° West 165 190 7,400 1,620 Climbing Salt Lake Center
01:13AM 45.8603 -108.7422 293° West 173 199 9,200 1,320 Climbing Salt Lake Center
01:14AM 45.8739 -108.8072 287° West 175 201 10,200 1,080 Climbing Salt Lake Center
01:15AM 45.8897 -108.8761 288° West 181 208 11,400 1,020 Climbing Salt Lake Center
01:16AM 45.9121 -109.0228 287° West  Level FlightAware Approximate
01:16AM 45.9053 -108.9503 287° West 181 208 12,300  Level Salt Lake Center
01:17AM 45.9242 -109.0203 291° West 190 219 13,300 960 Climbing Salt Lake Center
01:18AM 45.9389 -109.0883 287° West 185 213 14,300 720 Climbing Salt Lake Center
01:19AM 45.9567 -109.1653 288° West 186 214 14,800 240 Climbing Salt Lake Center
01:20AM 45.9739 -109.2417 288° West 201 231 14,900 60 Climbing Salt Lake Center
01:21AM 45.9900 -109.3247 286° West 215 247 15,000  Climbing Salt Lake Center
01:22AM 46.0078 -109.4175 285° West 223 257 15,000 240 Level Salt Lake Center
01:23AM 46.0258 -109.4981 288° West 215 247 15,600 480 Climbing Salt Lake Center
01:24AM 46.0411 -109.5750 286° West 206 237 16,000 120 Climbing Salt Lake Center
01:25AM 46.0603 -109.6619 288° West 210 242 15,900  Descending Salt Lake Center
01:26AM 46.0778 -109.7456 287° West 217 250 16,000 60 Climbing Salt Lake Center
01:27AM 46.0933 -109.8325 284° West 217 250 16,100  Climbing Salt Lake Center
01:28AM 46.1136 -109.9164 289° West 220 253 16,100  Level Salt Lake Center
01:29AM 46.1347 -110.0003 290° West 220 253 16,100  Level Salt Lake Center
01:30AM 46.1547 -110.0811 290° West 220 253 16,100  Level Salt Lake Center
01:31AM 46.1694 -110.1683 284° West 225 259 16,100 -60 Level Salt Lake Center
01:32AM 46.1969 -110.2497 296° West 226 260 16,000 -60 Descending Salt Lake Center
01:33AM 46.2167 -110.3300 290° West 220 253 16,000  Level Salt Lake Center
01:34AM 46.2325 -110.4161 285° West 219 252 16,000  Level Salt Lake Center
01:35AM 46.2500 -110.5050 286° West 223 257 16,000  Level Salt Lake Center
01:36AM 46.2650 -110.5933 284° West 224 258 16,000  Level Salt Lake Center
01:37AM 46.2767 -110.6806 281° West 224 258 16,000  Level Salt Lake Center
01:38AM 46.2947 -110.7656 287° West 224 258 16,000  Level Salt Lake Center
01:39AM 46.3169 -110.8653 288° West 222 255 16,000  Level Salt Lake Center
01:40AM 46.3286 -110.9361 283° West 222 255 16,000  Level Salt Lake Center
01:41AM 46.3547 -111.0417 290° West 229 264 16,000  Level Salt Lake Center
01:42AM 46.3678 -111.1319 282° West 227 261 16,000  Level Salt Lake Center
01:43AM 46.3856 -111.2200 286° West 230 265 16,000  Level Salt Lake Center
01:44AM 46.3981 -111.3097 281° West 227 261 16,000  Level Salt Lake Center
01:45AM 46.4133 -111.3914 285° West 226 260 16,000  Level Salt Lake Center
01:46AM 46.4372 -111.4758 292° West 226 260 16,000  Level Salt Lake Center
01:47AM 46.4544 -111.5519 288° West 226 260 16,000  Level Salt Lake Center
01:48AM 46.4703 -111.6397 285° West 226 260 16,000  Level Salt Lake Center
01:49AM 46.4864 -111.7275 285° West 227 261 16,000  Level Salt Lake Center
01:50AM 46.5039 -111.8150 286° West 227 261 16,000  Level Salt Lake Center
01:51AM 46.5225 -111.9197 285° West 226 260 16,000  Level Salt Lake Center
01:52AM 46.5447 -112.0047 291° West 227 261 16,000  Level Salt Lake Center
01:53AM 46.5606 -112.0919 285° West 227 261 16,000  Level Salt Lake Center
01:54AM 46.5756 -112.1808 284° West 227 261 16,000  Level Salt Lake Center
01:55AM 46.5947 -112.2678 288° West 228 262 16,100  Climbing Salt Lake Center
01:56AM 46.6058 -112.3572 280° West 226 260 16,000 -60 Descending Salt Lake Center
01:57AM 46.6242 -112.4456 287° West 229 264 16,000  Level Salt Lake Center
01:58AM 46.6408 -112.5344 285° West 228 262 16,000  Level Salt Lake Center
01:59AM 46.6578 -112.6233 286° West 228 262 16,000  Level Salt Lake Center
02:01AM 46.6719 -112.7192 282° West 228 262 16,000  Level Salt Lake Center
02:02AM 46.6911 -112.7992 289° West 228 262 16,000 -60 Level Salt Lake Center
02:03AM 46.7056 -112.8869 284° West 226 260 15,900 -60 Descending Salt Lake Center
02:04AM 46.7189 -112.9853 281° West 226 260 15,900 -120 Level Salt Lake Center
02:05AM 46.7411 -113.0725 290° West 229 264 15,700 -360 Descending Salt Lake Center
02:06AM 46.7556 -113.1678 283° West 238 274 15,200 -540 Descending Salt Lake Center
02:07AM 46.7656 -113.2650 279° West 241 277 14,700 -600 Descending Salt Lake Center
02:08AM 46.7767 -113.3694 279° West 245 282 14,000 -780 Descending Salt Lake Center
02:09AM 46.7981 -113.4683 288° West 252 290 13,200 -900 Descending Salt Lake Center
02:10AM 46.8197 -113.5814 286° West 266 306 12,200 -1,140 Descending Salt Lake Center
02:11AM 46.8381 -113.6892 284° West 270 311 10,900 -1,200 Descending Salt Lake Center
02:12AM 46.8608 -113.7906 288° West 269 310 9,800 -1,200 Descending Salt Lake Center
02:13AM 46.8794 -113.8856 286° West 247 284 8,500 -1,440 Descending Salt Lake Center
02:14AM 46.8711 -113.9639 261° West 199 229 7,000 -1,860 Descending Salt Lake Center
02:15AM 46.8703 -114.0142 269° West 148 170 4,800 -1,680 Descending Salt Lake Center
02:16AM 46.8947 -114.0558 311° West 137 158 3,600 -1,200 Descending Salt Lake Center
02:18AM 46.9000 -114.0833 284° West  Level FlightAware Approximate
02:25AM 46.9163 -114.0906 284° West  Level Estimated
02:26AM 46.9163 -114.0906 163° South  Level Estimated
02:27AM 46.9163 -114.0906 284° West  Level Estimated
02:28AM 46.9163 -114.0906 163° South  Level Estimated
02:29AM 46.9163 -114.0906 284° West  Level Estimated
02:30AM 46.9163 -114.0906 163° South  Level Estimated
02:31AM 46.9163 -114.0906 284° West  Level Estimated
02:32AM 46.9163 -114.0906 163° South  Level Estimated